createdAt,value
2023-03-18T00:00:02.182Z,5.47
2023-03-18T00:02:29.341Z,4.50
2023-03-18T00:04:56.439Z,7.57
2023-03-18T00:07:23.511Z,7.97
2023-03-18T00:09:52.796Z,6.10
2023-03-18T00:12:19.911Z,6.97
2023-03-18T00:14:47.080Z,5.80
2023-03-18T00:17:14.259Z,5.97
2023-03-18T00:19:41.351Z,5.87
2023-03-18T00:22:10.208Z,5.27
2023-03-18T00:24:37.725Z,6.83
2023-03-18T00:27:04.974Z,6.33
2023-03-18T00:29:32.034Z,5.50
2023-03-18T00:31:59.658Z,6.33
2023-03-18T00:34:26.986Z,5.70
2023-03-18T00:36:57.221Z,4.67
2023-03-18T00:39:26.537Z,5.57
2023-03-18T00:41:58.067Z,5.90
2023-03-18T00:44:26.295Z,6.50
2023-03-18T00:46:53.432Z,6.60
2023-03-18T00:49:20.674Z,7.30
2023-03-18T00:51:47.919Z,4.37
2023-03-18T00:54:18.562Z,4.93
2023-03-18T00:56:45.823Z,6.43
2023-03-18T00:59:13.297Z,9.37
2023-03-18T01:01:40.633Z,8.03
2023-03-18T01:04:07.775Z,6.27
2023-03-18T01:06:36.399Z,6.50
2023-03-18T01:09:05.039Z,5.17
2023-03-18T01:11:33.293Z,6.83
2023-03-18T01:14:00.556Z,5.27
2023-03-18T01:16:27.819Z,5.70
2023-03-18T01:18:55.026Z,10.30
2023-03-18T01:21:22.746Z,7.17
2023-03-18T01:23:49.902Z,5.53
2023-03-18T01:26:17.337Z,4.57
2023-03-18T01:28:44.884Z,4.97
2023-03-18T01:31:12.619Z,5.80
2023-03-18T01:33:40.407Z,4.97
2023-03-18T01:36:08.175Z,7.63
2023-03-18T01:38:35.454Z,6.10
2023-03-18T01:41:02.932Z,4.93
2023-03-18T01:43:35.102Z,5.07
2023-03-18T01:46:03.495Z,4.77
2023-03-18T01:48:31.569Z,5.70
2023-03-18T01:51:00.319Z,7.87
2023-03-18T01:53:32.598Z,5.53
2023-03-18T01:56:01.333Z,6.53
2023-03-18T01:58:31.982Z,6.63
2023-03-18T02:01:01.628Z,6.50
2023-03-18T02:03:29.279Z,5.90
2023-03-18T02:05:56.470Z,5.77
2023-03-18T02:08:23.749Z,4.80
2023-03-18T02:10:51.182Z,5.57
2023-03-18T02:13:18.688Z,6.47
2023-03-18T02:15:52.456Z,5.20
2023-03-18T02:18:25.435Z,5.73
2023-03-18T02:20:52.558Z,6.13
2023-03-18T02:23:29.422Z,5.70
2023-03-18T02:26:15.532Z,6.50
2023-03-18T02:28:43.226Z,5.27
2023-03-18T02:31:12.051Z,6.20
2023-03-18T02:33:40.403Z,5.27
2023-03-18T02:36:10.255Z,6.03
2023-03-18T02:38:41.348Z,7.47
2023-03-18T02:41:13.270Z,7.20
2023-03-18T02:43:40.539Z,5.47
2023-03-18T02:46:11.009Z,5.37
2023-03-18T02:48:39.517Z,5.67
2023-03-18T02:51:07.391Z,6.67
2023-03-18T02:53:34.597Z,6.00
2023-03-18T02:56:02.086Z,6.40
2023-03-18T02:58:29.194Z,6.47
2023-03-18T03:00:57.486Z,5.33
2023-03-18T03:03:25.355Z,5.03
2023-03-18T03:05:52.677Z,6.90
2023-03-18T03:08:20.308Z,5.57
2023-03-18T03:13:20.667Z,5.30
2023-03-18T03:15:48.419Z,5.00
2023-03-18T03:18:16.524Z,5.43
2023-03-18T03:20:43.961Z,6.63
2023-03-18T03:23:12.686Z,6.33
2023-03-18T03:25:40.117Z,6.27
2023-03-18T03:28:08.410Z,7.13
2023-03-18T03:30:36.806Z,4.23
2023-03-18T03:33:04.317Z,5.17
2023-03-18T03:35:31.879Z,5.57
2023-03-18T03:37:59.115Z,5.97
2023-03-18T03:40:27.706Z,8.03
2023-03-18T03:42:54.869Z,5.33
2023-03-18T03:45:22.108Z,6.03
2023-03-18T03:47:49.744Z,5.60
2023-03-18T03:50:17.034Z,5.53
2023-03-18T03:52:44.237Z,5.60
2023-03-18T03:55:13.091Z,5.57
2023-03-18T03:57:40.704Z,8.07
2023-03-18T04:00:13.541Z,5.53
2023-03-18T04:02:41.984Z,5.30
2023-03-18T04:05:09.401Z,7.97
2023-03-18T04:07:36.593Z,4.83
2023-03-18T04:10:03.866Z,5.97
2023-03-18T04:12:30.964Z,5.57
2023-03-18T04:14:58.114Z,6.90
2023-03-18T04:17:25.591Z,4.80
2023-03-18T04:19:52.638Z,7.70
2023-03-18T04:22:19.735Z,8.67
2023-03-18T04:24:46.968Z,6.13
2023-03-18T04:27:14.230Z,5.20
2023-03-18T04:29:41.661Z,5.83
2023-03-18T04:32:08.856Z,6.90
2023-03-18T04:34:36.753Z,6.90
2023-03-18T04:37:03.950Z,5.03
2023-03-18T04:39:31.037Z,5.60
2023-03-18T04:41:58.354Z,6.10
2023-03-18T04:44:25.604Z,6.27
2023-03-18T04:46:53.961Z,4.50
2023-03-18T04:49:22.008Z,5.90
2023-03-18T04:51:49.140Z,4.30
2023-03-18T04:54:16.197Z,6.77
2023-03-18T04:56:43.710Z,5.40
2023-03-18T04:59:10.808Z,7.07
2023-03-18T05:01:38.200Z,5.90
2023-03-18T05:04:05.369Z,4.43
2023-03-18T05:06:33.905Z,5.83
2023-03-18T05:09:01.675Z,6.37
2023-03-18T05:11:29.194Z,6.87
2023-03-18T05:13:56.802Z,7.03
2023-03-18T05:16:24.629Z,6.63
2023-03-18T05:18:52.310Z,4.23
2023-03-18T05:21:19.668Z,6.83
2023-03-18T05:23:47.088Z,5.53
2023-03-18T05:26:14.186Z,9.87
2023-03-18T05:28:41.290Z,5.03
2023-03-18T05:31:08.389Z,5.23
2023-03-18T05:33:36.002Z,8.87
2023-03-18T05:36:03.306Z,5.67
2023-03-18T05:38:30.429Z,5.83
2023-03-18T05:40:57.838Z,6.07
2023-03-18T05:43:26.176Z,6.43
2023-03-18T05:45:53.396Z,5.87
2023-03-18T05:48:20.590Z,7.90
2023-03-18T05:50:47.973Z,5.33
2023-03-18T05:53:16.685Z,4.87
2023-03-18T05:55:44.206Z,8.57
2023-03-18T05:58:11.727Z,5.97
2023-03-18T06:00:39.113Z,6.17
2023-03-18T06:03:06.634Z,6.20
2023-03-18T06:05:34.150Z,5.30
2023-03-18T06:08:03.105Z,5.90
2023-03-18T06:10:31.084Z,5.17
2023-03-18T06:12:58.225Z,5.50
2023-03-18T06:15:25.701Z,5.97
2023-03-18T06:17:52.920Z,5.83
2023-03-18T06:20:20.538Z,6.30
2023-03-18T06:22:51.593Z,9.33
2023-03-18T06:25:20.032Z,5.87
2023-03-18T06:27:47.861Z,6.77
2023-03-18T06:30:15.584Z,5.03
2023-03-18T06:32:42.744Z,5.53
2023-03-18T06:35:10.510Z,6.83
2023-03-18T06:37:38.157Z,5.00
2023-03-18T06:40:06.047Z,5.17
2023-03-18T06:42:33.312Z,6.70
2023-03-18T06:45:00.362Z,6.53
2023-03-18T06:47:28.417Z,6.17
2023-03-18T06:49:56.670Z,5.97
2023-03-18T06:52:23.996Z,4.73
2023-03-18T06:54:51.858Z,6.17
2023-03-18T06:57:20.318Z,5.37
2023-03-18T06:59:47.941Z,6.23
2023-03-18T07:02:15.735Z,5.77
2023-03-18T07:04:43.017Z,7.53
2023-03-18T07:07:10.780Z,6.23
2023-03-18T07:09:37.932Z,4.80
2023-03-18T07:12:06.399Z,5.23
2023-03-18T07:14:33.977Z,6.90
2023-03-18T07:17:02.247Z,5.87
2023-03-18T07:19:29.390Z,7.37
2023-03-18T07:21:57.031Z,4.87
2023-03-18T07:24:24.150Z,5.30
2023-03-18T07:26:51.675Z,6.30
2023-03-18T07:29:19.545Z,7.30
2023-03-18T07:31:46.872Z,6.87
2023-03-18T07:34:15.105Z,5.03
2023-03-18T07:36:42.583Z,4.77
2023-03-18T07:39:12.656Z,6.60
2023-03-18T07:41:39.746Z,7.17
2023-03-18T07:44:07.827Z,4.77
2023-03-18T07:46:34.999Z,6.40
2023-03-18T07:49:02.180Z,7.13
2023-03-18T07:51:29.424Z,6.93
2023-03-18T07:53:56.644Z,5.80
2023-03-18T07:56:24.202Z,5.83
2023-03-18T07:58:51.652Z,4.80
2023-03-18T08:01:19.409Z,4.73
2023-03-18T08:03:46.850Z,7.73
2023-03-18T08:06:15.400Z,4.87
2023-03-18T08:08:42.935Z,5.13
2023-03-18T08:11:10.708Z,5.73
2023-03-18T08:13:38.723Z,4.57
2023-03-18T08:16:06.117Z,6.33
2023-03-18T08:18:33.291Z,5.23
2023-03-18T08:21:00.510Z,5.80
2023-03-18T08:23:27.800Z,7.03
2023-03-18T08:25:54.926Z,6.53
2023-03-18T08:28:22.018Z,6.17
2023-03-18T08:30:49.081Z,4.87
2023-03-18T08:33:16.844Z,5.80
2023-03-18T08:35:44.064Z,6.43
2023-03-18T08:38:11.128Z,8.17
2023-03-18T08:40:38.171Z,5.97
2023-03-18T08:43:05.286Z,7.20
2023-03-18T08:45:32.809Z,6.60
2023-03-18T08:48:00.235Z,5.27
2023-03-18T08:50:29.599Z,5.00
2023-03-18T08:52:57.901Z,6.10
2023-03-18T08:55:29.869Z,5.80
2023-03-18T08:57:57.872Z,5.13
2023-03-18T09:00:25.331Z,9.47
2023-03-18T09:02:53.111Z,7.20
2023-03-18T09:05:20.846Z,5.97
2023-03-18T09:07:48.097Z,5.67
2023-03-18T09:10:16.837Z,6.67
2023-03-18T09:12:44.673Z,5.53
2023-03-18T09:15:12.340Z,5.50
2023-03-18T09:17:56.951Z,7.53
2023-03-18T09:20:28.261Z,7.70
2023-03-18T09:22:56.223Z,7.90
2023-03-18T09:25:24.511Z,5.47
2023-03-18T09:27:51.706Z,6.77
2023-03-18T09:30:18.960Z,5.03
2023-03-18T09:32:46.199Z,7.20
2023-03-18T09:35:14.289Z,5.27
2023-03-18T09:37:41.502Z,6.13
2023-03-18T09:40:10.706Z,7.23
2023-03-18T09:42:46.021Z,8.40
2023-03-18T09:45:22.509Z,9.33
2023-03-18T09:47:52.725Z,6.53
2023-03-18T09:50:35.161Z,7.07
2023-03-18T09:53:07.123Z,6.87
2023-03-18T09:55:46.566Z,6.80
2023-03-18T09:58:19.507Z,6.50
2023-03-18T10:00:46.874Z,6.00
2023-03-18T10:03:18.492Z,5.33
2023-03-18T10:05:53.652Z,6.47
2023-03-18T10:08:20.816Z,6.27
2023-03-18T10:10:48.293Z,8.40
2023-03-18T10:13:20.148Z,8.30
2023-03-18T10:15:49.764Z,6.50
2023-03-18T10:18:17.315Z,7.93
2023-03-18T10:20:59.334Z,6.67
2023-03-18T10:23:29.533Z,5.80
2023-03-18T10:25:58.732Z,7.30
2023-03-18T10:28:44.741Z,6.83
2023-03-18T10:31:11.889Z,9.10
2023-03-18T10:33:54.100Z,8.53
2023-03-18T10:36:24.003Z,6.27
2023-03-18T10:38:53.266Z,7.53
2023-03-18T10:41:30.318Z,5.43
2023-03-18T10:43:58.211Z,7.10
2023-03-18T10:46:27.019Z,8.30
2023-03-18T10:49:01.199Z,7.47
2023-03-18T10:51:43.453Z,9.43
2023-03-18T10:54:24.175Z,7.00
2023-03-18T10:56:52.889Z,6.10
2023-03-18T10:59:21.913Z,6.90
2023-03-18T11:01:50.960Z,8.57
2023-03-18T11:04:23.093Z,5.87
2023-03-18T11:07:03.389Z,6.70
2023-03-18T11:09:42.233Z,5.97
2023-03-18T11:12:19.976Z,7.33
2023-03-18T11:14:48.571Z,6.90
2023-03-18T11:17:20.753Z,5.93
2023-03-18T11:19:48.809Z,6.73
2023-03-18T11:22:18.954Z,5.30
2023-03-18T11:24:46.452Z,5.60
2023-03-18T11:27:16.682Z,6.03
2023-03-18T11:29:46.852Z,6.67
2023-03-18T11:32:34.060Z,6.40
2023-03-18T11:35:02.736Z,5.70
2023-03-18T11:37:31.841Z,7.30
2023-03-18T11:40:14.274Z,5.33
2023-03-18T11:42:41.954Z,5.50
2023-03-18T11:45:35.526Z,6.90
2023-03-18T11:48:03.548Z,7.00
2023-03-18T11:50:40.513Z,6.33
2023-03-18T11:53:26.384Z,6.30
2023-03-18T11:55:59.627Z,5.60
2023-03-18T11:58:45.375Z,6.17
2023-03-18T12:01:26.807Z,8.40
2023-03-18T12:03:53.879Z,6.63
2023-03-18T12:06:28.614Z,9.07
2023-03-18T12:09:15.448Z,7.80
2023-03-18T12:11:55.200Z,7.17
2023-03-18T12:14:34.595Z,7.27
2023-03-18T12:17:21.930Z,8.50
2023-03-18T12:20:04.130Z,8.33
2023-03-18T12:22:42.336Z,5.80
2023-03-18T12:25:18.480Z,7.07
2023-03-18T12:27:55.202Z,7.10
2023-03-18T12:30:32.353Z,9.63
2023-03-18T12:33:06.912Z,7.10
2023-03-18T12:35:39.329Z,7.67
2023-03-18T12:38:15.672Z,7.60
2023-03-18T12:40:42.751Z,8.10
2023-03-18T12:43:12.855Z,9.10
2023-03-18T12:45:42.514Z,6.57
2023-03-18T12:48:13.380Z,8.40
2023-03-18T12:50:42.749Z,8.40
2023-03-18T12:53:16.944Z,9.57
2023-03-18T12:55:48.268Z,8.00
2023-03-18T12:58:39.356Z,9.57
2023-03-18T13:01:10.357Z,6.80
2023-03-18T13:03:40.155Z,8.83
2023-03-18T13:06:18.655Z,8.07
2023-03-18T13:09:04.750Z,8.27
2023-03-18T13:11:37.642Z,8.73
2023-03-18T13:14:07.950Z,7.20
2023-03-18T13:16:36.258Z,8.47
2023-03-18T13:19:04.744Z,11.10
2023-03-18T13:21:34.518Z,8.30
2023-03-18T13:24:21.308Z,7.33
2023-03-18T13:26:57.337Z,10.53
2023-03-18T13:29:59.937Z,8.60
2023-03-18T13:32:26.988Z,7.77
2023-03-18T13:35:13.423Z,9.17
2023-03-18T13:37:49.749Z,8.80
2023-03-18T13:40:33.611Z,8.83
2023-03-18T13:43:02.113Z,7.73
2023-03-18T13:45:31.875Z,9.83
2023-03-18T13:48:01.036Z,8.23
2023-03-18T13:50:32.684Z,11.83
2023-03-18T13:53:01.585Z,8.07
2023-03-18T13:55:42.811Z,11.10
2023-03-18T13:58:19.150Z,8.80
2023-03-18T14:01:09.206Z,8.40
2023-03-18T14:03:42.455Z,10.10
2023-03-18T14:06:10.329Z,8.23
2023-03-18T14:08:43.377Z,8.73
2023-03-18T14:11:16.752Z,10.83
2023-03-18T14:13:44.839Z,7.73
2023-03-18T14:16:12.890Z,10.00
2023-03-18T14:18:40.155Z,10.30
2023-03-18T14:21:23.390Z,8.50
2023-03-18T14:24:07.602Z,9.20
2023-03-18T14:26:35.194Z,11.00
2023-03-18T14:29:17.083Z,11.57
2023-03-18T14:31:44.182Z,8.90
2023-03-18T14:34:17.337Z,8.93
2023-03-18T14:36:44.357Z,10.60
2023-03-18T14:39:34.458Z,9.43
2023-03-18T14:42:03.393Z,8.80
2023-03-18T14:44:34.204Z,9.37
2023-03-18T14:47:04.325Z,9.83
2023-03-18T14:49:37.075Z,9.67
2023-03-18T14:52:12.627Z,9.33
2023-03-18T14:54:43.598Z,9.77
2023-03-18T14:57:10.857Z,10.07
2023-03-18T14:59:37.926Z,10.50
2023-03-18T15:02:06.853Z,10.03
2023-03-18T15:04:34.470Z,10.27
2023-03-18T15:07:04.542Z,10.07
2023-03-18T15:09:33.520Z,10.60
2023-03-18T15:12:00.594Z,8.93
2023-03-18T15:14:29.973Z,8.53
2023-03-18T15:16:58.993Z,10.33
2023-03-18T15:19:26.784Z,10.00
2023-03-18T15:21:54.093Z,9.83
2023-03-18T15:24:23.001Z,14.60
2023-03-18T15:27:01.785Z,9.20
2023-03-18T15:29:33.643Z,9.20
2023-03-18T15:32:14.589Z,8.70
2023-03-18T15:34:42.439Z,11.40
2023-03-18T15:37:24.457Z,12.00
2023-03-18T15:39:55.797Z,8.47
2023-03-18T15:42:23.507Z,10.27
2023-03-18T15:44:55.728Z,11.63
2023-03-18T15:47:26.271Z,10.27
2023-03-18T15:49:57.640Z,9.90
2023-03-18T15:52:33.385Z,11.70
2023-03-18T15:55:01.285Z,12.77
2023-03-18T15:57:39.155Z,9.70
2023-03-18T16:00:10.936Z,9.83
2023-03-18T16:02:38.377Z,10.20
2023-03-18T16:05:07.674Z,11.43
2023-03-18T16:07:35.396Z,12.10
2023-03-18T16:10:02.474Z,13.60
2023-03-18T16:12:30.895Z,10.30
2023-03-18T16:14:58.084Z,9.80
2023-03-18T16:17:25.146Z,12.00
2023-03-18T16:19:55.135Z,13.40
2023-03-18T16:22:22.777Z,11.07
2023-03-18T16:24:50.204Z,11.00
2023-03-18T16:27:31.433Z,11.37
2023-03-18T16:29:58.493Z,10.77
2023-03-18T16:32:25.654Z,12.07
2023-03-18T16:34:52.691Z,12.10
2023-03-18T16:37:21.885Z,10.10
2023-03-18T16:39:49.364Z,12.03
2023-03-18T16:42:16.489Z,12.37
2023-03-18T16:44:43.586Z,10.43
2023-03-18T16:47:31.022Z,12.40
2023-03-18T16:49:58.902Z,16.23
2023-03-18T16:52:25.941Z,11.13
2023-03-18T16:54:53.020Z,14.40
2023-03-18T16:57:21.636Z,13.83
2023-03-18T16:59:50.468Z,12.93
2023-03-18T17:02:27.982Z,15.13
2023-03-18T17:04:55.105Z,12.07
2023-03-18T17:07:22.299Z,13.00
2023-03-18T17:09:49.447Z,12.40
2023-03-18T17:12:17.191Z,15.37
2023-03-18T17:14:53.023Z,13.80
2023-03-18T17:17:31.282Z,13.83
2023-03-18T17:19:59.672Z,14.30
2023-03-18T17:22:28.287Z,13.57
2023-03-18T17:24:55.374Z,15.63
2023-03-18T17:27:23.744Z,14.03
2023-03-18T17:29:50.982Z,16.23
2023-03-18T17:32:19.500Z,12.53
2023-03-18T17:34:47.382Z,15.10
2023-03-18T17:37:14.535Z,15.77
2023-03-18T17:39:41.696Z,13.37
2023-03-18T17:42:24.264Z,15.23
2023-03-18T17:44:51.407Z,17.20
2023-03-18T17:47:18.694Z,14.67
2023-03-18T17:49:45.762Z,13.53
2023-03-18T17:52:14.828Z,16.00
2023-03-18T17:54:42.491Z,14.13
2023-03-18T17:57:14.366Z,14.03
2023-03-18T17:59:41.448Z,15.93
2023-03-18T18:02:17.670Z,14.80
2023-03-18T18:04:45.673Z,15.27
2023-03-18T18:07:19.871Z,12.43
2023-03-18T18:09:47.017Z,15.13
2023-03-18T18:12:21.954Z,12.93
2023-03-18T18:14:49.598Z,14.30
2023-03-18T18:17:17.242Z,19.20
2023-03-18T18:19:45.520Z,14.53
2023-03-18T18:22:21.225Z,14.43
2023-03-18T18:24:48.599Z,14.13
2023-03-18T18:27:16.313Z,15.17
2023-03-18T18:29:45.673Z,12.40
2023-03-18T18:32:13.308Z,12.33
2023-03-18T18:34:40.610Z,14.27
2023-03-18T18:37:08.099Z,12.50
2023-03-18T18:39:35.206Z,15.87
2023-03-18T18:42:03.984Z,15.90
2023-03-18T18:44:31.677Z,15.13
2023-03-18T18:46:58.798Z,14.60
2023-03-18T18:49:26.049Z,15.37
2023-03-18T18:51:54.670Z,13.33
2023-03-18T18:54:22.652Z,18.40
2023-03-18T18:56:49.744Z,14.63
2023-03-18T18:59:22.938Z,15.30
2023-03-18T19:01:50.935Z,14.77
2023-03-18T19:04:18.199Z,15.50
2023-03-18T19:06:46.332Z,17.80
2023-03-18T19:09:18.783Z,14.70
2023-03-18T19:11:46.512Z,13.87
2023-03-18T19:14:26.520Z,14.63
2023-03-18T19:16:54.414Z,17.23
2023-03-18T19:19:22.423Z,13.67
2023-03-18T19:21:51.420Z,15.60
2023-03-18T19:24:20.265Z,12.83
2023-03-18T19:26:47.527Z,20.07
2023-03-18T19:29:18.834Z,16.40
2023-03-18T19:31:45.982Z,19.23
2023-03-18T19:34:17.373Z,12.27
2023-03-18T19:36:46.554Z,17.07
2023-03-18T19:39:14.677Z,17.27
2023-03-18T19:41:41.863Z,14.63
2023-03-18T19:44:25.485Z,17.70
2023-03-18T19:46:53.544Z,13.83
2023-03-18T19:49:20.640Z,18.63
2023-03-18T19:51:49.008Z,14.43
2023-03-18T19:54:19.162Z,15.97
2023-03-18T19:56:46.295Z,19.03
2023-03-18T19:59:19.377Z,15.37
2023-03-18T20:01:46.870Z,15.23
2023-03-18T20:04:18.897Z,15.13
2023-03-18T20:06:50.556Z,16.07
2023-03-18T20:09:20.991Z,17.33
2023-03-18T20:11:49.413Z,14.23
2023-03-18T20:14:27.165Z,15.97
2023-03-18T20:16:54.680Z,18.57
2023-03-18T20:19:21.997Z,18.50
2023-03-18T20:21:49.664Z,15.30
2023-03-18T20:24:18.097Z,16.83
2023-03-18T20:26:45.254Z,16.83
2023-03-18T20:29:16.800Z,16.47
2023-03-18T20:31:44.861Z,17.63
2023-03-18T20:34:12.048Z,16.00
2023-03-18T20:36:39.523Z,14.00
2023-03-18T20:39:06.830Z,14.10
2023-03-18T20:41:37.954Z,15.20
2023-03-18T20:44:05.179Z,17.07
2023-03-18T20:46:32.385Z,15.40
2023-03-18T20:48:59.527Z,14.93
2023-03-18T20:51:36.578Z,14.33
2023-03-18T20:54:17.529Z,15.53
2023-03-18T20:56:44.643Z,15.00
2023-03-18T20:59:11.923Z,14.73
2023-03-18T21:01:39.673Z,13.87
2023-03-18T21:04:07.484Z,13.43
2023-03-18T21:06:34.691Z,16.17
2023-03-18T21:09:01.904Z,15.13
2023-03-18T21:11:32.545Z,17.87
2023-03-18T21:13:59.813Z,16.33
2023-03-18T21:16:27.772Z,15.47
2023-03-18T21:18:54.912Z,14.30
2023-03-18T21:21:22.079Z,17.13
2023-03-18T21:23:49.510Z,14.07
2023-03-18T21:26:16.943Z,12.87
2023-03-18T21:28:44.050Z,14.53
2023-03-18T21:31:19.477Z,15.13
2023-03-18T21:33:47.270Z,15.23
2023-03-18T21:36:14.453Z,13.47
2023-03-18T21:38:41.640Z,18.53
2023-03-18T21:41:17.837Z,15.73
2023-03-18T21:43:45.114Z,15.07
2023-03-18T21:46:14.158Z,15.83
2023-03-18T21:48:41.322Z,14.60
2023-03-18T21:51:22.128Z,14.90
2023-03-18T21:53:55.734Z,13.47
2023-03-18T21:56:22.858Z,14.17
2023-03-18T21:58:49.938Z,14.20
2023-03-18T22:01:25.023Z,13.27
2023-03-18T22:03:53.846Z,14.37
2023-03-18T22:06:22.006Z,15.47
2023-03-18T22:08:49.126Z,14.33
2023-03-18T22:11:17.820Z,19.63
2023-03-18T22:13:45.371Z,15.00
2023-03-18T22:16:13.721Z,13.73
2023-03-18T22:18:41.725Z,13.97
2023-03-18T22:21:14.961Z,14.80
2023-03-18T22:23:42.910Z,16.43
2023-03-18T22:26:14.224Z,13.83
2023-03-18T22:28:41.539Z,15.67
2023-03-18T22:31:19.899Z,15.37
2023-03-18T22:33:47.631Z,12.73
2023-03-18T22:36:15.782Z,13.00
2023-03-18T22:38:42.914Z,14.60
2023-03-18T22:41:23.395Z,12.67
2023-03-18T22:43:50.738Z,13.00
2023-03-18T22:46:18.021Z,14.07
2023-03-18T22:48:45.193Z,14.23
2023-03-18T22:51:24.176Z,14.90
2023-03-18T22:53:52.277Z,14.60
2023-03-18T22:56:19.578Z,14.37
2023-03-18T22:58:46.623Z,13.20
2023-03-18T23:01:20.992Z,15.20
2023-03-18T23:03:48.908Z,17.63
2023-03-18T23:06:17.295Z,14.53
2023-03-18T23:08:45.646Z,15.80
2023-03-18T23:11:13.412Z,14.67
2023-03-18T23:13:42.374Z,12.37
2023-03-18T23:16:12.818Z,13.37
2023-03-18T23:18:40.156Z,15.50
2023-03-18T23:21:07.305Z,14.63
2023-03-18T23:23:34.408Z,14.27
2023-03-18T23:26:01.958Z,12.73
2023-03-18T23:28:29.122Z,15.20
2023-03-18T23:30:56.266Z,14.67
2023-03-18T23:33:23.339Z,16.53
2023-03-18T23:35:50.448Z,14.67
2023-03-18T23:38:17.558Z,12.63
2023-03-18T23:40:44.757Z,14.17
2023-03-18T23:43:11.840Z,14.60
2023-03-18T23:45:39.650Z,15.10
2023-03-18T23:48:07.164Z,13.97
2023-03-18T23:50:34.230Z,16.20
2023-03-18T23:53:01.789Z,16.27
2023-03-18T23:55:34.901Z,12.87
2023-03-18T23:58:02.788Z,12.93
